sensor_id;sensor_type;location;lat;lon;timestamp;temperature;humidity
8563;DHT22;16392;52.508;13.468;2023-04-09T00:02:11;4.70;78.10
8563;DHT22;16392;52.508;13.468;2023-04-09T00:04:37;4.90;99.90
8563;DHT22;16392;52.508;13.468;2023-04-09T00:07:04;5.00;99.90
8563;DHT22;16392;52.508;13.468;2023-04-09T00:09:30;5.00;99.90
8563;DHT22;16392;52.508;13.468;2023-04-09T00:11:57;4.90;99.90
8563;DHT22;16392;52.508;13.468;2023-04-09T00:14:25;5.10;99.90
8563;DHT22;16392;52.508;13.468;2023-04-09T00:16:51;5.20;99.90
8563;DHT22;16392;52.508;13.468;2023-04-09T00:19:18;5.30;99.90
8563;DHT22;16392;52.508;13.468;2023-04-09T00:21:45;5.20;34.00
8563;DHT22;16392;52.508;13.468;2023-04-09T00:24:12;4.90;16.50
8563;DHT22;16392;52.508;13.468;2023-04-09T00:26:39;4.80;99.90
8563;DHT22;16392;52.508;13.468;2023-04-09T00:29:05;4.80;99.90
8563;DHT22;16392;52.508;13.468;2023-04-09T00:31:33;4.60;99.90
8563;DHT22;16392;52.508;13.468;2023-04-09T00:34:00;4.50;99.90
8563;DHT22;16392;52.508;13.468;2023-04-09T00:36:26;4.40;99.90
8563;DHT22;16392;52.508;13.468;2023-04-09T00:38:53;4.40;99.90
8563;DHT22;16392;52.508;13.468;2023-04-09T00:41:19;4.40;99.90
8563;DHT22;16392;52.508;13.468;2023-04-09T00:43:46;4.50;99.90
8563;DHT22;16392;52.508;13.468;2023-04-09T00:46:12;4.50;99.90
8563;DHT22;16392;52.508;13.468;2023-04-09T00:48:41;4.30;99.90
8563;DHT22;16392;52.508;13.468;2023-04-09T00:51:08;4.20;99.90
8563;DHT22;16392;52.508;13.468;2023-04-09T00:53:35;4.20;99.90
8563;DHT22;16392;52.508;13.468;2023-04-09T00:56:01;4.40;99.90
8563;DHT22;16392;52.508;13.468;2023-04-09T00:58:29;4.50;99.90
8563;DHT22;16392;52.508;13.468;2023-04-09T01:00:56;4.80;99.90
8563;DHT22;16392;52.508;13.468;2023-04-09T01:03:22;4.70;99.90
8563;DHT22;16392;52.508;13.468;2023-04-09T01:05:52;4.50;99.90
8563;DHT22;16392;52.508;13.468;2023-04-09T01:08:23;4.30;99.90
8563;DHT22;16392;52.508;13.468;2023-04-09T01:10:56;4.30;99.90
8563;DHT22;16392;52.508;13.468;2023-04-09T01:13:27;4.20;99.90
8563;DHT22;16392;52.508;13.468;2023-04-09T01:15:56;4.10;99.90
8563;DHT22;16392;52.508;13.468;2023-04-09T01:18:28;4.20;99.90
8563;DHT22;16392;52.508;13.468;2023-04-09T01:20:57;4.20;99.90
8563;DHT22;16392;52.508;13.468;2023-04-09T01:23:28;4.20;99.90
8563;DHT22;16392;52.508;13.468;2023-04-09T01:25:59;4.20;99.90
8563;DHT22;16392;52.508;13.468;2023-04-09T01:28:30;4.10;99.90
8563;DHT22;16392;52.508;13.468;2023-04-09T01:30:58;4.00;99.90
8563;DHT22;16392;52.508;13.468;2023-04-09T01:33:25;3.70;99.90
8563;DHT22;16392;52.508;13.468;2023-04-09T01:35:52;3.60;99.90
8563;DHT22;16392;52.508;13.468;2023-04-09T01:38:20;3.70;99.90
8563;DHT22;16392;52.508;13.468;2023-04-09T01:40:47;3.60;99.90
8563;DHT22;16392;52.508;13.468;2023-04-09T01:43:13;3.40;99.90
8563;DHT22;16392;52.508;13.468;2023-04-09T01:45:42;3.40;99.90
8563;DHT22;16392;52.508;13.468;2023-04-09T01:48:09;3.40;99.90
8563;DHT22;16392;52.508;13.468;2023-04-09T01:50:36;3.50;99.90
8563;DHT22;16392;52.508;13.468;2023-04-09T01:53:03;3.70;99.90
8563;DHT22;16392;52.508;13.468;2023-04-09T01:55:29;3.70;99.90
8563;DHT22;16392;52.508;13.468;2023-04-09T01:57:56;3.70;99.90
8563;DHT22;16392;52.508;13.468;2023-04-09T02:00:22;3.80;99.90
8563;DHT22;16392;52.508;13.468;2023-04-09T02:02:52;3.80;99.90
8563;DHT22;16392;52.508;13.468;2023-04-09T02:05:20;3.60;99.90
8563;DHT22;16392;52.508;13.468;2023-04-09T02:07:52;3.50;99.90
8563;DHT22;16392;52.508;13.468;2023-04-09T02:10:19;3.60;99.90
8563;DHT22;16392;52.508;13.468;2023-04-09T02:12:47;3.70;99.90
8563;DHT22;16392;52.508;13.468;2023-04-09T02:15:15;3.80;99.90
8563;DHT22;16392;52.508;13.468;2023-04-09T02:17:41;3.60;99.90
8563;DHT22;16392;52.508;13.468;2023-04-09T02:20:10;3.60;99.90
8563;DHT22;16392;52.508;13.468;2023-04-09T02:22:37;3.50;99.90
8563;DHT22;16392;52.508;13.468;2023-04-09T02:25:04;3.30;99.90
8563;DHT22;16392;52.508;13.468;2023-04-09T02:27:31;3.50;99.90
8563;DHT22;16392;52.508;13.468;2023-04-09T02:29:57;3.70;99.90
8563;DHT22;16392;52.508;13.468;2023-04-09T02:32:24;3.90;99.90
8563;DHT22;16392;52.508;13.468;2023-04-09T02:34:50;4.00;99.90
8563;DHT22;16392;52.508;13.468;2023-04-09T02:37:18;3.90;99.90
8563;DHT22;16392;52.508;13.468;2023-04-09T02:39:45;3.80;99.90
8563;DHT22;16392;52.508;13.468;2023-04-09T02:42:11;3.70;99.90
8563;DHT22;16392;52.508;13.468;2023-04-09T02:44:38;3.50;99.90
8563;DHT22;16392;52.508;13.468;2023-04-09T02:47:04;3.40;99.90
8563;DHT22;16392;52.508;13.468;2023-04-09T02:49:31;3.30;99.90
8563;DHT22;16392;52.508;13.468;2023-04-09T02:51:57;3.50;99.90
8563;DHT22;16392;52.508;13.468;2023-04-09T02:54:25;3.60;99.90
8563;DHT22;16392;52.508;13.468;2023-04-09T02:56:52;3.50;99.90
8563;DHT22;16392;52.508;13.468;2023-04-09T02:59:18;3.40;99.90
8563;DHT22;16392;52.508;13.468;2023-04-09T03:01:45;3.30;99.90
8563;DHT22;16392;52.508;13.468;2023-04-09T03:04:11;3.40;99.90
8563;DHT22;16392;52.508;13.468;2023-04-09T03:06:38;3.50;99.90
8563;DHT22;16392;52.508;13.468;2023-04-09T03:09:04;3.50;99.90
8563;DHT22;16392;52.508;13.468;2023-04-09T03:11:32;3.60;99.90
8563;DHT22;16392;52.508;13.468;2023-04-09T03:13:58;3.70;99.90
8563;DHT22;16392;52.508;13.468;2023-04-09T03:16:25;3.80;99.90
8563;DHT22;16392;52.508;13.468;2023-04-09T03:18:51;3.90;99.90
8563;DHT22;16392;52.508;13.468;2023-04-09T03:21:18;4.00;99.90
8563;DHT22;16392;52.508;13.468;2023-04-09T03:23:45;4.10;99.90
8563;DHT22;16392;52.508;13.468;2023-04-09T03:26:11;4.20;99.90
8563;DHT22;16392;52.508;13.468;2023-04-09T03:28:39;4.50;99.90
8563;DHT22;16392;52.508;13.468;2023-04-09T03:31:06;4.50;99.90
8563;DHT22;16392;52.508;13.468;2023-04-09T03:33:32;4.40;99.90
8563;DHT22;16392;52.508;13.468;2023-04-09T03:35:59;4.30;99.90
8563;DHT22;16392;52.508;13.468;2023-04-09T03:38:25;4.30;99.90
8563;DHT22;16392;52.508;13.468;2023-04-09T03:40:51;4.20;99.90
8563;DHT22;16392;52.508;13.468;2023-04-09T03:43:18;4.10;99.90
8563;DHT22;16392;52.508;13.468;2023-04-09T03:45:46;4.00;99.90
8563;DHT22;16392;52.508;13.468;2023-04-09T03:48:12;3.90;99.90
8563;DHT22;16392;52.508;13.468;2023-04-09T03:50:39;3.80;99.90
8563;DHT22;16392;52.508;13.468;2023-04-09T03:53:05;3.70;99.90
8563;DHT22;16392;52.508;13.468;2023-04-09T03:55:32;3.60;99.90
8563;DHT22;16392;52.508;13.468;2023-04-09T03:57:59;3.50;99.90
8563;DHT22;16392;52.508;13.468;2023-04-09T04:00:26;3.40;99.90
8563;DHT22;16392;52.508;13.468;2023-04-09T04:02:54;3.40;99.90
8563;DHT22;16392;52.508;13.468;2023-04-09T04:05:21;3.30;99.90
8563;DHT22;16392;52.508;13.468;2023-04-09T04:07:48;3.20;99.90
8563;DHT22;16392;52.508;13.468;2023-04-09T04:10:14;3.20;99.90
8563;DHT22;16392;52.508;13.468;2023-04-09T04:12:41;3.20;99.90
8563;DHT22;16392;52.508;13.468;2023-04-09T04:15:08;3.20;99.90
8563;DHT22;16392;52.508;13.468;2023-04-09T04:17:34;3.00;99.90
8563;DHT22;16392;52.508;13.468;2023-04-09T04:20:02;2.90;99.90
8563;DHT22;16392;52.508;13.468;2023-04-09T04:22:29;2.90;99.90
8563;DHT22;16392;52.508;13.468;2023-04-09T04:24:55;2.80;99.90
8563;DHT22;16392;52.508;13.468;2023-04-09T04:27:22;2.90;99.90
8563;DHT22;16392;52.508;13.468;2023-04-09T04:29:48;2.90;99.90
8563;DHT22;16392;52.508;13.468;2023-04-09T04:32:15;3.00;99.90
8563;DHT22;16392;52.508;13.468;2023-04-09T04:34:41;3.10;99.90
8563;DHT22;16392;52.508;13.468;2023-04-09T04:37:09;3.10;99.90
8563;DHT22;16392;52.508;13.468;2023-04-09T04:39:35;3.20;99.90
8563;DHT22;16392;52.508;13.468;2023-04-09T04:42:02;3.30;99.90
8563;DHT22;16392;52.508;13.468;2023-04-09T04:44:29;3.40;99.90
8563;DHT22;16392;52.508;13.468;2023-04-09T04:46:55;3.50;99.90
8563;DHT22;16392;52.508;13.468;2023-04-09T04:49:22;3.60;99.90
8563;DHT22;16392;52.508;13.468;2023-04-09T04:51:48;3.70;99.90
8563;DHT22;16392;52.508;13.468;2023-04-09T04:54:16;3.70;99.90
8563;DHT22;16392;52.508;13.468;2023-04-09T04:56:43;3.80;99.90
8563;DHT22;16392;52.508;13.468;2023-04-09T04:59:09;3.90;99.90
8563;DHT22;16392;52.508;13.468;2023-04-09T05:01:36;3.90;99.90
8563;DHT22;16392;52.508;13.468;2023-04-09T05:04:02;4.00;99.90
8563;DHT22;16392;52.508;13.468;2023-04-09T05:06:29;4.10;99.90
8563;DHT22;16392;52.508;13.468;2023-04-09T05:08:55;4.20;99.90
8563;DHT22;16392;52.508;13.468;2023-04-09T05:11:24;4.20;99.90
8563;DHT22;16392;52.508;13.468;2023-04-09T05:13:50;4.30;99.90
8563;DHT22;16392;52.508;13.468;2023-04-09T05:16:16;4.30;99.90
8563;DHT22;16392;52.508;13.468;2023-04-09T05:18:43;4.40;99.90
8563;DHT22;16392;52.508;13.468;2023-04-09T05:21:10;4.50;99.90
8563;DHT22;16392;52.508;13.468;2023-04-09T05:23:36;4.60;99.90
8563;DHT22;16392;52.508;13.468;2023-04-09T05:26:03;4.60;99.90
8563;DHT22;16392;52.508;13.468;2023-04-09T05:28:31;4.60;99.90
8563;DHT22;16392;52.508;13.468;2023-04-09T05:30:58;4.80;99.90
8563;DHT22;16392;52.508;13.468;2023-04-09T05:33:24;4.80;99.90
8563;DHT22;16392;52.508;13.468;2023-04-09T05:35:51;4.80;99.90
8563;DHT22;16392;52.508;13.468;2023-04-09T05:38:17;4.80;99.90
8563;DHT22;16392;52.508;13.468;2023-04-09T05:40:44;4.90;99.90
8563;DHT22;16392;52.508;13.468;2023-04-09T05:43:13;4.90;99.90
8563;DHT22;16392;52.508;13.468;2023-04-09T05:45:41;5.00;99.90
8563;DHT22;16392;52.508;13.468;2023-04-09T05:48:07;5.00;99.90
8563;DHT22;16392;52.508;13.468;2023-04-09T05:50:34;5.00;99.90
8563;DHT22;16392;52.508;13.468;2023-04-09T05:53:00;5.00;99.90
8563;DHT22;16392;52.508;13.468;2023-04-09T05:55:27;5.10;99.90
8563;DHT22;16392;52.508;13.468;2023-04-09T05:57:54;5.20;99.90
8563;DHT22;16392;52.508;13.468;2023-04-09T06:00:20;5.20;99.90
8563;DHT22;16392;52.508;13.468;2023-04-09T06:02:48;5.30;99.90
8563;DHT22;16392;52.508;13.468;2023-04-09T06:05:15;5.40;99.90
8563;DHT22;16392;52.508;13.468;2023-04-09T06:07:41;5.50;99.90
8563;DHT22;16392;52.508;13.468;2023-04-09T06:10:07;5.50;99.90
8563;DHT22;16392;52.508;13.468;2023-04-09T06:12:34;5.60;99.90
8563;DHT22;16392;52.508;13.468;2023-04-09T06:15:01;5.60;99.90
8563;DHT22;16392;52.508;13.468;2023-04-09T06:17:28;5.70;99.90
8563;DHT22;16392;52.508;13.468;2023-04-09T06:19:55;5.80;99.90
8563;DHT22;16392;52.508;13.468;2023-04-09T06:22:22;5.60;99.90
8563;DHT22;16392;52.508;13.468;2023-04-09T06:24:48;5.60;99.90
8563;DHT22;16392;52.508;13.468;2023-04-09T06:27:15;5.70;99.90
8563;DHT22;16392;52.508;13.468;2023-04-09T06:29:43;5.70;99.90
8563;DHT22;16392;52.508;13.468;2023-04-09T06:32:09;5.80;99.90
8563;DHT22;16392;52.508;13.468;2023-04-09T06:34:36;6.00;99.90
8563;DHT22;16392;52.508;13.468;2023-04-09T06:37:04;6.10;99.90
8563;DHT22;16392;52.508;13.468;2023-04-09T06:39:30;6.30;99.90
8563;DHT22;16392;52.508;13.468;2023-04-09T06:41:57;6.30;99.90
8563;DHT22;16392;52.508;13.468;2023-04-09T06:44:24;6.40;99.90
8563;DHT22;16392;52.508;13.468;2023-04-09T06:46:50;6.40;99.90
8563;DHT22;16392;52.508;13.468;2023-04-09T06:49:16;6.50;99.90
8563;DHT22;16392;52.508;13.468;2023-04-09T06:51:43;6.40;99.90
8563;DHT22;16392;52.508;13.468;2023-04-09T06:54:12;6.40;99.90
8563;DHT22;16392;52.508;13.468;2023-04-09T06:56:38;6.50;99.90
8563;DHT22;16392;52.508;13.468;2023-04-09T06:59:05;6.70;99.90
8563;DHT22;16392;52.508;13.468;2023-04-09T07:01:32;6.70;99.90
8563;DHT22;16392;52.508;13.468;2023-04-09T07:03:59;6.60;99.90
8563;DHT22;16392;52.508;13.468;2023-04-09T07:06:26;6.80;99.90
8563;DHT22;16392;52.508;13.468;2023-04-09T07:08:52;7.00;99.90
8563;DHT22;16392;52.508;13.468;2023-04-09T07:11:20;7.30;99.90
8563;DHT22;16392;52.508;13.468;2023-04-09T07:13:46;7.20;99.90
8563;DHT22;16392;52.508;13.468;2023-04-09T07:16:13;7.40;99.90
8563;DHT22;16392;52.508;13.468;2023-04-09T07:18:40;7.30;99.90
8563;DHT22;16392;52.508;13.468;2023-04-09T07:21:06;6.90;99.90
8563;DHT22;16392;52.508;13.468;2023-04-09T07:23:33;6.90;99.90
8563;DHT22;16392;52.508;13.468;2023-04-09T07:26:00;6.70;99.90
8563;DHT22;16392;52.508;13.468;2023-04-09T07:28:29;6.60;99.90
8563;DHT22;16392;52.508;13.468;2023-04-09T07:30:55;6.50;99.90
8563;DHT22;16392;52.508;13.468;2023-04-09T07:33:22;6.60;99.90
8563;DHT22;16392;52.508;13.468;2023-04-09T07:35:48;6.70;99.90
8563;DHT22;16392;52.508;13.468;2023-04-09T07:38:15;6.70;99.90
8563;DHT22;16392;52.508;13.468;2023-04-09T07:40:41;6.60;99.90
8563;DHT22;16392;52.508;13.468;2023-04-09T07:43:08;6.70;99.90
8563;DHT22;16392;52.508;13.468;2023-04-09T07:45:36;6.70;99.90
8563;DHT22;16392;52.508;13.468;2023-04-09T07:48:02;6.80;99.90
8563;DHT22;16392;52.508;13.468;2023-04-09T07:50:29;6.90;99.90
8563;DHT22;16392;52.508;13.468;2023-04-09T07:52:55;7.20;99.90
8563;DHT22;16392;52.508;13.468;2023-04-09T07:55:22;7.20;99.90
8563;DHT22;16392;52.508;13.468;2023-04-09T07:57:48;7.40;99.90
8563;DHT22;16392;52.508;13.468;2023-04-09T08:00:16;7.20;99.90
8563;DHT22;16392;52.508;13.468;2023-04-09T08:02:44;7.40;99.90
8563;DHT22;16392;52.508;13.468;2023-04-09T08:05:10;7.70;99.90
8563;DHT22;16392;52.508;13.468;2023-04-09T08:07:37;7.70;99.90
8563;DHT22;16392;52.508;13.468;2023-04-09T08:10:04;7.80;99.90
8563;DHT22;16392;52.508;13.468;2023-04-09T08:12:31;7.90;99.90
8563;DHT22;16392;52.508;13.468;2023-04-09T08:14:57;8.00;99.90
8563;DHT22;16392;52.508;13.468;2023-04-09T08:17:23;8.20;99.90
8563;DHT22;16392;52.508;13.468;2023-04-09T08:19:52;8.00;99.90
8563;DHT22;16392;52.508;13.468;2023-04-09T08:22:19;7.80;99.90
8563;DHT22;16392;52.508;13.468;2023-04-09T08:24:49;7.80;99.90
8563;DHT22;16392;52.508;13.468;2023-04-09T08:27:15;7.80;99.90
8563;DHT22;16392;52.508;13.468;2023-04-09T08:29:42;7.90;99.90
8563;DHT22;16392;52.508;13.468;2023-04-09T08:32:08;7.50;99.90
8563;DHT22;16392;52.508;13.468;2023-04-09T08:34:35;7.60;99.90
8563;DHT22;16392;52.508;13.468;2023-04-09T08:37:03;7.70;99.90
8563;DHT22;16392;52.508;13.468;2023-04-09T08:39:30;7.90;99.90
8563;DHT22;16392;52.508;13.468;2023-04-09T08:41:57;8.30;99.90
8563;DHT22;16392;52.508;13.468;2023-04-09T08:44:24;8.70;99.90
8563;DHT22;16392;52.508;13.468;2023-04-09T08:46:51;8.90;99.90
8563;DHT22;16392;52.508;13.468;2023-04-09T08:49:18;8.90;99.90
8563;DHT22;16392;52.508;13.468;2023-04-09T08:51:44;9.10;99.90
8563;DHT22;16392;52.508;13.468;2023-04-09T08:54:14;9.20;99.90
8563;DHT22;16392;52.508;13.468;2023-04-09T08:56:41;9.60;1.00
8563;DHT22;16392;52.508;13.468;2023-04-09T08:59:07;9.70;1.00
8563;DHT22;16392;52.508;13.468;2023-04-09T09:01:34;9.90;1.00
8563;DHT22;16392;52.508;13.468;2023-04-09T09:04:01;10.20;99.90
8563;DHT22;16392;52.508;13.468;2023-04-09T09:06:28;10.40;99.90
8563;DHT22;16392;52.508;13.468;2023-04-09T09:09:04;10.50;1.00
8563;DHT22;16392;52.508;13.468;2023-04-09T09:11:32;10.40;99.90
8563;DHT22;16392;52.508;13.468;2023-04-09T09:13:59;10.40;1.00
8563;DHT22;16392;52.508;13.468;2023-04-09T09:16:26;10.20;1.00
8563;DHT22;16392;52.508;13.468;2023-04-09T09:18:52;9.60;1.00
8563;DHT22;16392;52.508;13.468;2023-04-09T09:21:21;9.70;1.00
8563;DHT22;16392;52.508;13.468;2023-04-09T09:23:47;9.80;26.60
8563;DHT22;16392;52.508;13.468;2023-04-09T09:26:15;9.80;1.00
8563;DHT22;16392;52.508;13.468;2023-04-09T09:28:43;9.80;99.90
8563;DHT22;16392;52.508;13.468;2023-04-09T09:31:11;9.90;1.00
8563;DHT22;16392;52.508;13.468;2023-04-09T09:33:38;10.40;3.80
8563;DHT22;16392;52.508;13.468;2023-04-09T09:36:05;10.50;99.90
8563;DHT22;16392;52.508;13.468;2023-04-09T09:38:33;11.80;1.00
8563;DHT22;16392;52.508;13.468;2023-04-09T09:41:03;12.40;99.90
8563;DHT22;16392;52.508;13.468;2023-04-09T09:43:41;11.60;43.10
8563;DHT22;16392;52.508;13.468;2023-04-09T09:46:08;11.10;99.90
8563;DHT22;16392;52.508;13.468;2023-04-09T09:48:36;11.30;99.90
8563;DHT22;16392;52.508;13.468;2023-04-09T09:51:03;11.10;99.90
8563;DHT22;16392;52.508;13.468;2023-04-09T09:53:32;10.70;1.00
8563;DHT22;16392;52.508;13.468;2023-04-09T09:56:00;10.30;1.00
8563;DHT22;16392;52.508;13.468;2023-04-09T09:58:30;10.50;1.00
8563;DHT22;16392;52.508;13.468;2023-04-09T10:00:57;11.90;1.00
8563;DHT22;16392;52.508;13.468;2023-04-09T10:03:28;12.40;1.00
8563;DHT22;16392;52.508;13.468;2023-04-09T10:05:56;13.30;1.00
8563;DHT22;16392;52.508;13.468;2023-04-09T10:08:23;13.90;1.00
8563;DHT22;16392;52.508;13.468;2023-04-09T10:10:50;12.70;99.90
8563;DHT22;16392;52.508;13.468;2023-04-09T10:13:18;11.60;1.00
8563;DHT22;16392;52.508;13.468;2023-04-09T10:15:46;11.10;1.00
8563;DHT22;16392;52.508;13.468;2023-04-09T10:18:13;10.70;1.00
8563;DHT22;16392;52.508;13.468;2023-04-09T10:20:42;11.00;83.50
8563;DHT22;16392;52.508;13.468;2023-04-09T10:23:14;10.80;1.00
8563;DHT22;16392;52.508;13.468;2023-04-09T10:25:44;10.90;1.00
8563;DHT22;16392;52.508;13.468;2023-04-09T10:28:13;11.70;1.00
8563;DHT22;16392;52.508;13.468;2023-04-09T10:30:40;12.70;99.90
8563;DHT22;16392;52.508;13.468;2023-04-09T10:33:08;13.00;99.90
8563;DHT22;16392;52.508;13.468;2023-04-09T10:35:35;12.50;1.00
8563;DHT22;16392;52.508;13.468;2023-04-09T10:38:03;11.70;1.00
8563;DHT22;16392;52.508;13.468;2023-04-09T10:40:32;11.10;1.00
8563;DHT22;16392;52.508;13.468;2023-04-09T10:42:59;10.80;1.00
8563;DHT22;16392;52.508;13.468;2023-04-09T10:45:28;10.70;99.90
8563;DHT22;16392;52.508;13.468;2023-04-09T10:48:04;11.40;47.90
8563;DHT22;16392;52.508;13.468;2023-04-09T10:50:31;13.30;1.00
8563;DHT22;16392;52.508;13.468;2023-04-09T10:53:01;14.30;1.00
8563;DHT22;16392;52.508;13.468;2023-04-09T10:55:31;13.80;99.90
8563;DHT22;16392;52.508;13.468;2023-04-09T10:57:58;13.10;99.90
8563;DHT22;16392;52.508;13.468;2023-04-09T11:00:24;13.60;1.00
8563;DHT22;16392;52.508;13.468;2023-04-09T11:05:46;13.50;99.90
8563;DHT22;16392;52.508;13.468;2023-04-09T11:08:15;12.30;99.90
8563;DHT22;16392;52.508;13.468;2023-04-09T11:10:44;12.50;99.90
8563;DHT22;16392;52.508;13.468;2023-04-09T11:13:12;12.30;1.00
8563;DHT22;16392;52.508;13.468;2023-04-09T11:15:39;12.50;99.90
8563;DHT22;16392;52.508;13.468;2023-04-09T11:18:06;12.90;1.00
8563;DHT22;16392;52.508;13.468;2023-04-09T11:20:34;13.10;1.00
8563;DHT22;16392;52.508;13.468;2023-04-09T11:23:00;12.40;1.00
8563;DHT22;16392;52.508;13.468;2023-04-09T11:25:28;12.40;99.90
8563;DHT22;16392;52.508;13.468;2023-04-09T11:27:56;12.80;1.00
8563;DHT22;16392;52.508;13.468;2023-04-09T11:30:23;13.00;1.00
8563;DHT22;16392;52.508;13.468;2023-04-09T11:32:50;13.30;99.90
8563;DHT22;16392;52.508;13.468;2023-04-09T11:35:17;13.80;1.00
8563;DHT22;16392;52.508;13.468;2023-04-09T11:37:44;14.10;1.00
8563;DHT22;16392;52.508;13.468;2023-04-09T11:40:14;14.20;1.00
8563;DHT22;16392;52.508;13.468;2023-04-09T11:42:42;14.10;1.00
8563;DHT22;16392;52.508;13.468;2023-04-09T11:45:10;14.50;1.00
8563;DHT22;16392;52.508;13.468;2023-04-09T11:47:37;14.10;1.00
8563;DHT22;16392;52.508;13.468;2023-04-09T11:50:05;14.50;1.00
8563;DHT22;16392;52.508;13.468;2023-04-09T11:52:32;12.90;99.90
8563;DHT22;16392;52.508;13.468;2023-04-09T11:55:00;12.20;1.00
8563;DHT22;16392;52.508;13.468;2023-04-09T11:57:35;12.30;64.50
8563;DHT22;16392;52.508;13.468;2023-04-09T12:00:03;12.60;1.00
8563;DHT22;16392;52.508;13.468;2023-04-09T12:02:32;12.70;1.00
8563;DHT22;16392;52.508;13.468;2023-04-09T12:05:01;13.40;99.90
8563;DHT22;16392;52.508;13.468;2023-04-09T12:07:30;13.50;1.00
8563;DHT22;16392;52.508;13.468;2023-04-09T12:09:57;13.80;1.00
8563;DHT22;16392;52.508;13.468;2023-04-09T12:12:28;14.00;1.00
8563;DHT22;16392;52.508;13.468;2023-04-09T12:14:55;14.20;99.90
8563;DHT22;16392;52.508;13.468;2023-04-09T12:17:23;14.00;1.00
8563;DHT22;16392;52.508;13.468;2023-04-09T12:19:51;13.90;1.00
8563;DHT22;16392;52.508;13.468;2023-04-09T12:22:17;14.40;1.00
8563;DHT22;16392;52.508;13.468;2023-04-09T12:24:45;14.50;1.00
8563;DHT22;16392;52.508;13.468;2023-04-09T12:27:11;15.00;99.90
8563;DHT22;16392;52.508;13.468;2023-04-09T12:29:38;14.90;99.90
8563;DHT22;16392;52.508;13.468;2023-04-09T12:32:05;14.20;1.00
8563;DHT22;16392;52.508;13.468;2023-04-09T12:34:31;14.30;1.00
8563;DHT22;16392;52.508;13.468;2023-04-09T12:36:59;14.80;1.00
8563;DHT22;16392;52.508;13.468;2023-04-09T12:39:26;15.50;99.90
8563;DHT22;16392;52.508;13.468;2023-04-09T12:41:52;15.80;99.90
8563;DHT22;16392;52.508;13.468;2023-04-09T12:44:20;15.90;99.90
8563;DHT22;16392;52.508;13.468;2023-04-09T12:46:46;15.60;99.90
8563;DHT22;16392;52.508;13.468;2023-04-09T12:49:14;14.90;99.90
8563;DHT22;16392;52.508;13.468;2023-04-09T12:51:41;14.90;99.90
8563;DHT22;16392;52.508;13.468;2023-04-09T12:54:08;14.70;99.90
8563;DHT22;16392;52.508;13.468;2023-04-09T12:56:35;15.10;1.00
8563;DHT22;16392;52.508;13.468;2023-04-09T12:59:01;15.40;99.90
8563;DHT22;16392;52.508;13.468;2023-04-09T13:01:28;15.80;99.90
8563;DHT22;16392;52.508;13.468;2023-04-09T13:03:54;15.30;99.90
8563;DHT22;16392;52.508;13.468;2023-04-09T13:06:21;15.30;99.90
8563;DHT22;16392;52.508;13.468;2023-04-09T13:08:48;15.70;99.90
8563;DHT22;16392;52.508;13.468;2023-04-09T13:11:16;15.80;99.90
8563;DHT22;16392;52.508;13.468;2023-04-09T13:13:43;15.70;99.90
8563;DHT22;16392;52.508;13.468;2023-04-09T13:16:10;15.70;99.90
8563;DHT22;16392;52.508;13.468;2023-04-09T13:18:36;15.40;99.90
8563;DHT22;16392;52.508;13.468;2023-04-09T13:21:03;15.50;99.90
8563;DHT22;16392;52.508;13.468;2023-04-09T13:23:29;15.00;99.90
8563;DHT22;16392;52.508;13.468;2023-04-09T13:25:56;15.20;99.90
8563;DHT22;16392;52.508;13.468;2023-04-09T13:28:25;15.50;99.90
8563;DHT22;16392;52.508;13.468;2023-04-09T13:30:51;15.40;99.90
8563;DHT22;16392;52.508;13.468;2023-04-09T13:33:18;15.50;99.90
8563;DHT22;16392;52.508;13.468;2023-04-09T13:35:44;16.20;99.90
8563;DHT22;16392;52.508;13.468;2023-04-09T13:38:13;16.20;99.90
8563;DHT22;16392;52.508;13.468;2023-04-09T13:40:39;15.70;99.90
8563;DHT22;16392;52.508;13.468;2023-04-09T13:43:06;15.40;99.90
8563;DHT22;16392;52.508;13.468;2023-04-09T13:45:34;15.50;99.90
8563;DHT22;16392;52.508;13.468;2023-04-09T13:48:00;15.70;99.90
8563;DHT22;16392;52.508;13.468;2023-04-09T13:50:27;15.60;99.90
8563;DHT22;16392;52.508;13.468;2023-04-09T13:52:53;15.60;99.90
8563;DHT22;16392;52.508;13.468;2023-04-09T13:55:20;16.00;99.90
8563;DHT22;16392;52.508;13.468;2023-04-09T13:57:47;16.20;99.90
8563;DHT22;16392;52.508;13.468;2023-04-09T14:00:13;16.20;99.90
8563;DHT22;16392;52.508;13.468;2023-04-09T14:02:41;16.30;94.10
8563;DHT22;16392;52.508;13.468;2023-04-09T14:05:08;16.40;99.90
8563;DHT22;16392;52.508;13.468;2023-04-09T14:07:34;17.10;1.00
8563;DHT22;16392;52.508;13.468;2023-04-09T14:10:01;16.40;4.40
8563;DHT22;16392;52.508;13.468;2023-04-09T14:12:27;16.60;1.00
8563;DHT22;16392;52.508;13.468;2023-04-09T14:14:54;16.90;1.00
8563;DHT22;16392;52.508;13.468;2023-04-09T14:17:20;16.70;1.00
8563;DHT22;16392;52.508;13.468;2023-04-09T14:19:48;16.60;1.00
8563;DHT22;16392;52.508;13.468;2023-04-09T14:22:15;16.20;33.40
8563;DHT22;16392;52.508;13.468;2023-04-09T14:24:41;16.30;17.90
8563;DHT22;16392;52.508;13.468;2023-04-09T14:27:15;16.40;1.00
8563;DHT22;16392;52.508;13.468;2023-04-09T14:29:41;16.50;1.00
8563;DHT22;16392;52.508;13.468;2023-04-09T14:32:08;16.60;1.00
8563;DHT22;16392;52.508;13.468;2023-04-09T14:34:34;16.40;1.00
8563;DHT22;16392;52.508;13.468;2023-04-09T14:37:02;15.80;1.00
8563;DHT22;16392;52.508;13.468;2023-04-09T14:39:28;14.80;99.90
8563;DHT22;16392;52.508;13.468;2023-04-09T14:41:55;14.30;99.90
8563;DHT22;16392;52.508;13.468;2023-04-09T14:44:22;14.00;1.00
8563;DHT22;16392;52.508;13.468;2023-04-09T14:46:50;14.00;1.00
8563;DHT22;16392;52.508;13.468;2023-04-09T14:49:17;13.70;1.00
8563;DHT22;16392;52.508;13.468;2023-04-09T14:51:43;13.70;1.00
8563;DHT22;16392;52.508;13.468;2023-04-09T14:54:11;13.50;1.00
8563;DHT22;16392;52.508;13.468;2023-04-09T14:56:37;13.50;1.00
8563;DHT22;16392;52.508;13.468;2023-04-09T14:59:05;13.50;1.00
8563;DHT22;16392;52.508;13.468;2023-04-09T15:01:32;13.50;1.00
8563;DHT22;16392;52.508;13.468;2023-04-09T15:03:58;13.40;1.00
8563;DHT22;16392;52.508;13.468;2023-04-09T15:06:25;13.50;1.00
8563;DHT22;16392;52.508;13.468;2023-04-09T15:08:52;13.40;1.00
8563;DHT22;16392;52.508;13.468;2023-04-09T15:11:20;13.50;1.00
8563;DHT22;16392;52.508;13.468;2023-04-09T15:13:47;13.40;1.00
8563;DHT22;16392;52.508;13.468;2023-04-09T15:16:19;13.40;1.00
8563;DHT22;16392;52.508;13.468;2023-04-09T15:18:45;12.20;99.90
8563;DHT22;16392;52.508;13.468;2023-04-09T15:21:15;12.00;1.00
8563;DHT22;16392;52.508;13.468;2023-04-09T15:23:41;12.40;1.00
8563;DHT22;16392;52.508;13.468;2023-04-09T15:26:08;12.70;99.90
8563;DHT22;16392;52.508;13.468;2023-04-09T15:28:36;12.90;1.00
8563;DHT22;16392;52.508;13.468;2023-04-09T15:31:03;13.00;99.90
8563;DHT22;16392;52.508;13.468;2023-04-09T15:33:30;13.00;99.90
8563;DHT22;16392;52.508;13.468;2023-04-09T15:35:58;13.00;85.30
8563;DHT22;16392;52.508;13.468;2023-04-09T15:38:24;13.10;99.90
8563;DHT22;16392;52.508;13.468;2023-04-09T15:40:52;12.90;1.00
8563;DHT22;16392;52.508;13.468;2023-04-09T15:43:18;12.90;1.00
8563;DHT22;16392;52.508;13.468;2023-04-09T15:45:47;12.70;1.00